Time;durP1;ratioP1;P1;durP2;ratioP2;P2;SDS_P1;SDS_P2;PMS_P1;PMS_P2;Temp;Humidity;BMP_temperature;BMP_pressure;BME280_temperature;BME280_humidity;BME280_pressure;Samples;Min_cycle;Max_cycle;Signal;HPM_P1;HPM_P2
2022/06/11 00:01:19;;;;;;;11.50;2.80;;;;;;;13.15;100.00;102148.25;5055087;28;20449;-68
2022/06/11 00:03:47;;;;;;;18.40;3.40;;;;;;;13.11;100.00;102147.66;5054778;28;20040;-69
2022/06/11 00:06:12;;;;;;;9.75;2.80;;;;;;;13.08;100.00;102150.56;5054524;28;20450;-68
2022/06/11 00:08:39;;;;;;;15.45;3.15;;;;;;;13.04;100.00;102144.59;5054725;28;20025;-68
2022/06/11 00:11:08;;;;;;;16.33;3.03;;;;;;;13.03;100.00;102148.28;5053558;28;20037;-68
2022/06/11 00:13:34;;;;;;;14.70;2.90;;;;;;;13.04;100.00;102141.09;5054689;28;20036;-71
2022/06/11 00:16:01;;;;;;;10.75;2.53;;;;;;;13.00;100.00;102142.31;5053319;28;20029;-70
2022/06/11 00:18:28;;;;;;;9.45;2.67;;;;;;;12.94;100.00;102134.78;5054743;28;20035;-70
2022/06/11 00:20:53;;;;;;;12.00;3.08;;;;;;;12.89;100.00;102135.16;5053147;28;20468;-70
2022/06/11 00:23:19;;;;;;;15.30;3.10;;;;;;;12.84;100.00;102132.88;5053715;28;20033;-69
2022/06/11 00:25:45;;;;;;;18.85;3.30;;;;;;;12.83;100.00;102143.66;5053548;28;20118;-69
2022/06/11 00:28:10;;;;;;;14.63;3.35;;;;;;;12.85;100.00;102139.03;5054455;28;20041;-70
2022/06/11 00:30:36;;;;;;;14.85;3.10;;;;;;;12.85;100.00;102134.56;5054881;28;20048;-69
2022/06/11 00:33:06;;;;;;;22.50;3.40;;;;;;;12.89;100.00;102143.19;5054244;28;20029;-69
2022/06/11 00:35:34;;;;;;;16.92;3.78;;;;;;;12.93;100.00;102139.28;5053446;28;20120;-70
2022/06/11 00:38:00;;;;;;;18.33;3.92;;;;;;;13.01;100.00;102130.66;5054461;28;20350;-69
2022/06/11 00:40:27;;;;;;;14.00;3.50;;;;;;;13.10;100.00;102137.94;5052966;28;20071;-69
2022/06/11 00:42:52;;;;;;;13.30;3.40;;;;;;;13.11;100.00;102134.28;5054128;28;20032;-70
2022/06/11 00:45:24;;;;;;;17.55;3.15;;;;;;;13.14;100.00;102139.38;5054086;28;20106;-70
2022/06/11 00:47:58;;;;;;;13.77;3.10;;;;;;;13.08;100.00;102145.22;5054124;28;20426;-70
2022/06/11 00:50:37;;;;;;;16.40;2.85;;;;;;;13.02;100.00;102141.22;5053899;28;20028;-70
2022/06/11 00:53:06;;;;;;;15.57;3.00;;;;;;;12.98;100.00;102130.91;5054041;28;20101;-70
2022/06/11 00:55:36;;;;;;;12.90;2.83;;;;;;;13.05;100.00;102143.66;5054354;28;20544;-70
2022/06/11 00:58:07;;;;;;;16.80;3.10;;;;;;;13.11;100.00;102139.63;5054030;28;20036;-69
2022/06/11 01:00:41;;;;;;;13.50;2.92;;;;;;;13.18;100.00;102142.66;5053941;28;20031;-70
2022/06/11 01:03:08;;;;;;;10.90;2.67;;;;;;;13.26;100.00;102152.75;5054228;28;20032;-69
2022/06/11 01:05:37;;;;;;;18.45;3.17;;;;;;;13.30;100.00;102154.16;5053850;28;20032;-69
2022/06/11 01:08:37;;;;;;;14.23;3.22;;;;;;;13.31;100.00;102148.69;5053668;28;20029;-69
2022/06/11 01:11:13;;;;;;;18.02;3.20;;;;;;;13.32;100.00;102141.53;5053690;28;20029;-70
2022/06/11 01:14:09;;;;;;;16.25;3.05;;;;;;;13.34;98.73;102143.13;5053679;28;20032;-70
2022/06/11 01:16:43;;;;;;;16.73;3.00;;;;;;;13.34;96.23;102145.81;5053949;28;20041;-69
2022/06/11 01:19:14;;;;;;;21.15;3.25;;;;;;;13.36;94.54;102140.31;5053498;28;20061;-70
2022/06/11 01:21:50;;;;;;;16.50;4.32;;;;;;;13.37;92.50;102152.72;5053460;28;20481;-68
2022/06/11 01:24:26;;;;;;;18.65;3.00;;;;;;;13.34;91.66;102145.81;5053612;28;20075;-68
2022/06/11 01:27:18;;;;;;;10.00;2.70;;;;;;;13.45;89.64;102144.94;5053238;28;20357;-68
2022/06/11 01:30:07;;;;;;;14.80;3.10;;;;;;;13.53;88.58;102136.28;5053076;28;20103;-69
2022/06/11 01:32:46;;;;;;;9.30;2.75;;;;;;;13.53;88.26;102145.16;5053730;28;20033;-69
2022/06/11 01:36:00;;;;;;;11.35;2.75;;;;;;;13.48;88.42;102147.38;5051626;28;20107;-69
2022/06/11 01:38:50;;;;;;;14.13;3.08;;;;;;;13.43;89.17;102151.38;5040714;28;20052;-68
2022/06/11 01:41:37;;;;;;;14.23;3.83;;;;;;;13.37;89.61;102152.72;5051727;28;20346;-69
2022/06/11 01:44:18;;;;;;;15.40;3.15;;;;;;;13.30;89.66;102148.81;5052985;28;20100;-69
2022/06/11 01:46:47;;;;;;;21.77;3.78;;;;;;;13.26;89.94;102148.22;5052998;28;20496;-69
2022/06/11 01:49:22;;;;;;;16.85;3.00;;;;;;;13.28;90.23;102150.78;5052977;28;20064;-69
2022/06/11 01:51:58;;;;;;;17.85;3.13;;;;;;;13.27;90.23;102147.25;5052751;28;20067;-69
2022/06/11 01:54:33;;;;;;;16.88;3.35;;;;;;;13.25;90.42;102151.88;5053092;28;20048;-69
2022/06/11 01:57:34;;;;;;;16.67;3.13;;;;;;;13.23;90.23;102152.00;5052975;28;20021;-69
2022/06/11 02:00:08;;;;;;;18.13;3.08;;;;;;;13.20;90.81;102151.41;5052127;28;20040;-71
2022/06/11 02:02:58;;;;;;;19.50;3.33;;;;;;;13.13;90.94;102158.22;5052958;28;20037;-70
2022/06/11 02:05:51;;;;;;;18.67;3.13;;;;;;;13.06;91.85;102157.84;5053657;28;20103;-69
2022/06/11 02:08:31;;;;;;;23.45;3.47;;;;;;;13.00;92.21;102159.22;5052852;28;20508;-70
2022/06/11 02:11:05;;;;;;;24.80;4.28;;;;;;;12.94;92.29;102165.00;5053198;28;20024;-69
2022/06/11 02:13:44;;;;;;;18.80;3.90;;;;;;;12.91;92.52;102159.91;5053195;28;20044;-70
2022/06/11 02:16:23;;;;;;;20.55;3.75;;;;;;;12.91;92.32;102173.28;5052775;28;20033;-70
2022/06/11 02:18:52;;;;;;;23.42;4.28;;;;;;;12.90;92.82;102166.25;5052917;28;20037;-69
2022/06/11 02:21:23;;;;;;;19.45;3.80;;;;;;;12.84;92.90;102166.75;5052867;28;20052;-69
2022/06/11 02:24:09;;;;;;;19.98;3.40;;;;;;;12.80;93.02;102167.94;5052531;28;20469;-69
2022/06/11 02:26:42;;;;;;;17.40;3.65;;;;;;;12.74;93.55;102163.09;5052678;28;20531;-69
2022/06/11 02:29:11;;;;;;;21.00;4.35;;;;;;;12.70;94.04;102165.16;5052819;28;20032;-70
2022/06/11 02:31:44;;;;;;;19.77;4.55;;;;;;;12.65;93.91;102165.50;5052868;28;20029;-68
2022/06/11 02:34:10;;;;;;;19.73;4.30;;;;;;;12.63;94.50;102164.78;5051882;28;20028;-70
2022/06/11 02:37:06;;;;;;;18.33;3.58;;;;;;;12.69;95.05;102164.31;5052633;28;20116;-70
2022/06/11 02:39:35;;;;;;;19.00;4.38;;;;;;;12.72;94.67;102171.22;5052269;28;20076;-70
2022/06/11 02:42:07;;;;;;;18.70;3.30;;;;;;;12.72;94.76;102170.38;5056465;28;20033;-68
2022/06/11 02:44:32;;;;;;;21.92;3.83;;;;;;;12.70;94.82;102173.16;5056674;28;20032;-70
2022/06/11 02:46:58;;;;;;;21.67;4.53;;;;;;;12.66;95.16;102177.91;5057019;28;20369;-68
2022/06/11 02:49:31;;;;;;;26.67;4.43;;;;;;;12.63;95.42;102186.16;5055892;28;20149;-70
2022/06/11 02:52:04;;;;;;;20.38;3.40;;;;;;;12.62;95.58;102180.94;5056334;28;20057;-69
2022/06/11 02:54:29;;;;;;;18.83;3.58;;;;;;;12.63;96.00;102179.94;5056449;28;20045;-69
2022/06/11 02:56:57;;;;;;;24.20;4.13;;;;;;;12.64;96.23;102181.66;5056173;28;20033;-69
2022/06/11 02:59:25;;;;;;;21.55;3.97;;;;;;;12.62;96.33;102184.44;5054986;28;20036;-69
2022/06/11 03:01:54;;;;;;;19.33;3.60;;;;;;;12.61;96.60;102182.72;5055823;28;20037;-70
2022/06/11 03:04:21;;;;;;;22.48;4.25;;;;;;;12.59;96.55;102184.69;5055387;28;20428;-70
2022/06/11 03:06:48;;;;;;;24.30;4.30;;;;;;;12.53;96.86;102191.34;5056028;28;20033;-70
2022/06/11 03:09:22;;;;;;;23.88;4.50;;;;;;;12.47;97.44;102188.31;5054611;28;20040;-69
2022/06/11 03:11:47;;;;;;;24.67;4.10;;;;;;;12.44;98.04;102185.88;5056084;28;20021;-69
2022/06/11 03:14:14;;;;;;;22.67;4.30;;;;;;;12.40;98.79;102195.94;5055946;28;20033;-69
2022/06/11 03:16:40;;;;;;;17.80;4.10;;;;;;;12.38;99.04;102194.38;5055788;28;20035;-69
2022/06/11 03:19:07;;;;;;;23.02;3.80;;;;;;;12.36;98.96;102194.47;5055956;28;20123;-69
2022/06/11 03:21:33;;;;;;;27.65;4.13;;;;;;;12.34;99.75;102202.56;5056106;28;20036;-70
2022/06/11 03:23:59;;;;;;;29.02;5.53;;;;;;;12.32;100.00;102198.34;5037619;28;20117;-69
2022/06/11 03:26:25;;;;;;;27.05;4.00;;;;;;;12.35;100.00;102201.63;5055297;28;20099;-70
2022/06/11 03:28:51;;;;;;;17.77;4.13;;;;;;;12.40;100.00;102205.75;5055655;28;20033;-69
2022/06/11 03:31:17;;;;;;;27.48;4.85;;;;;;;12.39;100.00;102204.06;5054159;28;20025;-70
2022/06/11 03:33:43;;;;;;;22.77;4.30;;;;;;;12.37;100.00;102206.84;5055574;28;20114;-69
2022/06/11 03:36:11;;;;;;;22.40;4.38;;;;;;;12.41;100.00;102210.97;5055268;28;20381;-69
2022/06/11 03:38:38;;;;;;;26.90;4.03;;;;;;;12.46;100.00;102210.63;5054381;28;20040;-69
2022/06/11 03:41:05;;;;;;;21.63;4.45;;;;;;;12.48;100.00;102219.34;5055376;28;20083;-69
2022/06/11 03:43:30;;;;;;;22.63;4.30;;;;;;;12.49;100.00;102221.06;5055103;28;20033;-69
2022/06/11 03:45:58;;;;;;;22.92;4.28;;;;;;;12.51;100.00;102224.50;5055161;28;20511;-69
2022/06/11 03:48:23;;;;;;;24.23;4.20;;;;;;;12.54;100.00;102224.25;5053988;28;20033;-69
2022/06/11 03:50:49;;;;;;;21.88;4.10;;;;;;;12.55;100.00;102225.94;5054547;28;20362;-69
2022/06/11 03:53:14;;;;;;;20.67;4.25;;;;;;;12.57;100.00;102228.47;5055498;28;20048;-70
2022/06/11 03:55:42;;;;;;;32.72;4.72;;;;;;;12.53;100.00;102231.38;5054833;28;20033;-69
2022/06/11 03:58:09;;;;;;;26.25;4.68;;;;;;;12.47;100.00;102234.53;5055747;28;20377;-69
2022/06/11 04:03:21;;;;;;;31.02;5.18;;;;;;;12.46;100.00;102231.97;5055504;28;20099;-69
2022/06/11 04:05:47;;;;;;;29.83;4.90;;;;;;;12.48;100.00;102235.38;5054949;28;20389;-70
2022/06/11 04:08:14;;;;;;;27.00;4.75;;;;;;;12.50;100.00;102242.31;5055166;28;20049;-69
2022/06/11 04:10:41;;;;;;;22.02;4.53;;;;;;;12.52;100.00;102242.19;5055027;28;20489;-69
2022/06/11 04:13:08;;;;;;;26.17;4.70;;;;;;;12.54;100.00;102245.59;5054719;28;20033;-69
2022/06/11 04:15:35;;;;;;;32.42;5.03;;;;;;;12.57;100.00;102245.38;5054980;28;20337;-70
2022/06/11 04:18:02;;;;;;;31.92;5.38;;;;;;;12.57;100.00;102245.38;5053549;28;20033;-69
2022/06/11 04:20:28;;;;;;;24.42;4.65;;;;;;;12.58;100.00;102251.56;5055087;28;20029;-69
2022/06/11 04:22:54;;;;;;;27.52;4.93;;;;;;;12.61;100.00;102251.31;5054349;28;20082;-69
2022/06/11 04:25:21;;;;;;;28.17;4.72;;;;;;;12.64;100.00;102257.25;5053499;28;20487;-69
2022/06/11 04:27:47;;;;;;;24.02;4.25;;;;;;;12.69;100.00;102257.75;5055034;28;20033;-69
2022/06/11 04:30:14;;;;;;;24.55;5.15;;;;;;;12.71;100.00;102265.66;5053667;28;20033;-69
2022/06/11 04:32:40;;;;;;;26.00;4.80;;;;;;;12.75;100.00;102263.59;5054385;28;20037;-69
2022/06/11 04:35:07;;;;;;;25.77;5.28;;;;;;;12.78;100.00;102271.38;5054429;28;20401;-69
2022/06/11 04:37:33;;;;;;;33.03;4.75;;;;;;;12.81;100.00;102274.66;5054343;28;20100;-68
2022/06/11 04:40:00;;;;;;;26.92;4.75;;;;;;;12.85;100.00;102269.94;5054302;28;20127;-68
2022/06/11 04:42:27;;;;;;;22.85;4.70;;;;;;;12.88;100.00;102270.56;5053923;28;20033;-68
2022/06/11 04:44:53;;;;;;;30.45;5.15;;;;;;;12.94;100.00;102279.03;5054411;28;20037;-70
2022/06/11 04:47:22;;;;;;;25.35;4.65;;;;;;;12.99;100.00;102280.41;5054416;28;20091;-76
2022/06/11 04:49:50;;;;;;;29.83;5.32;;;;;;;13.06;100.00;102275.41;5052389;28;20124;-68
2022/06/11 04:52:15;;;;;;;26.50;4.60;;;;;;;13.11;100.00;102273.25;5053644;28;20041;-68
2022/06/11 04:54:42;;;;;;;24.00;5.10;;;;;;;13.18;100.00;102277.13;5054016;28;20103;-69
2022/06/11 04:57:08;;;;;;;31.63;5.45;;;;;;;13.24;100.00;102283.78;5053879;28;20075;-70
2022/06/11 04:59:33;;;;;;;25.08;4.63;;;;;;;13.26;100.00;102279.19;5053101;28;20065;-69
2022/06/11 05:02:00;;;;;;;30.08;4.28;;;;;;;13.32;100.00;102285.88;5053992;28;20036;-69
2022/06/11 05:04:26;;;;;;;30.45;5.88;;;;;;;13.36;100.00;102288.22;5054718;28;20404;-70
2022/06/11 05:06:52;;;;;;;32.15;5.28;;;;;;;13.44;100.00;102287.59;5053545;28;20026;-71
2022/06/11 05:09:20;;;;;;;27.60;5.65;;;;;;;13.52;100.00;102295.84;5053435;28;20079;-69
2022/06/11 05:11:46;;;;;;;32.05;5.70;;;;;;;13.57;100.00;102292.84;5053445;28;20477;-70
2022/06/11 05:14:12;;;;;;;22.60;4.60;;;;;;;13.64;100.00;102287.81;5053953;28;20124;-70
2022/06/11 05:16:41;;;;;;;41.63;5.75;;;;;;;13.67;100.00;102291.09;5054064;28;20083;-69
2022/06/11 05:19:07;;;;;;;34.40;5.28;;;;;;;13.71;100.00;102292.56;5053578;28;20103;-70
2022/06/11 05:21:33;;;;;;;30.58;4.95;;;;;;;13.75;99.65;102294.00;5053591;28;20337;-72
2022/06/11 05:23:58;;;;;;;25.17;5.22;;;;;;;13.80;99.24;102290.97;5053505;28;20033;-70
2022/06/11 05:26:30;;;;;;;33.47;5.47;;;;;;;13.88;98.11;102293.88;5053769;28;20462;-76
2022/06/11 05:28:55;;;;;;;28.60;5.25;;;;;;;13.96;97.82;102293.25;5053388;28;20078;-70
2022/06/11 05:31:20;;;;;;;32.15;4.85;;;;;;;14.03;97.61;102301.59;5053589;28;20112;-69
2022/06/11 05:33:46;;;;;;;30.77;4.75;;;;;;;14.11;96.74;102309.84;5053332;28;20445;-70
2022/06/11 05:36:13;;;;;;;31.13;5.78;;;;;;;14.18;96.52;102302.16;5053561;28;20029;-70
2022/06/11 05:38:40;;;;;;;26.75;4.65;;;;;;;14.26;96.65;102303.22;5053498;28;20045;-70
2022/06/11 05:41:06;;;;;;;28.27;4.70;;;;;;;14.37;95.92;102309.50;5053496;28;20449;-70
2022/06/11 05:43:31;;;;;;;26.08;4.60;;;;;;;14.46;95.86;102311.41;5053416;28;20124;-71
2022/06/11 05:46:10;;;;;;;38.00;5.68;;;;;;;14.60;95.64;102304.88;5051921;28;20453;-69
2022/06/11 05:48:44;;;;;;;28.75;5.30;;;;;;;14.71;94.75;102304.03;5052904;28;20060;-70
2022/06/11 05:51:15;;;;;;;36.97;5.95;;;;;;;14.81;93.30;102312.97;5052616;28;20159;-69
2022/06/11 05:53:41;;;;;;;;;;;;;;;14.93;92.63;102311.09;5053147;28;20521;-70
2022/06/11 05:56:06;;;;;;;29.42;4.63;;;;;;;15.02;90.52;102312.97;5053020;28;19962;-69
2022/06/11 05:58:37;;;;;;;24.90;5.10;;;;;;;15.18;91.19;102315.16;5053024;28;20033;-70
2022/06/11 06:01:03;;;;;;;28.88;4.90;;;;;;;15.30;88.35;102313.22;5053145;28;20060;-70
2022/06/11 06:03:28;;;;;;;24.63;4.68;;;;;;;15.45;87.76;102313.72;5053701;28;20418;-76
2022/06/11 06:05:53;;;;;;;27.30;4.70;;;;;;;15.57;87.89;102314.47;5053267;28;20041;-70
2022/06/11 06:08:19;;;;;;;23.27;4.18;;;;;;;15.68;87.12;102315.22;5053812;28;20373;-70
2022/06/11 06:10:44;;;;;;;24.38;5.13;;;;;;;15.84;85.98;102324.63;5053139;28;20041;-70
2022/06/11 06:15:53;;;;;;;26.98;4.82;;;;;;;16.03;84.38;102315.75;5056893;28;20052;-70
2022/06/11 06:18:20;;;;;;;25.73;5.53;;;;;;;16.12;83.29;102319.44;5057300;28;20032;-70
2022/06/11 06:20:46;;;;;;;26.25;4.95;;;;;;;16.21;82.84;102314.09;5056897;28;20040;-70
2022/06/11 06:23:13;;;;;;;31.27;5.18;;;;;;;16.35;82.67;102323.53;5056619;28;20105;-69
2022/06/11 06:25:38;;;;;;;28.88;5.32;;;;;;;16.53;83.15;102317.47;5057021;28;20033;-70
2022/06/11 06:28:05;;;;;;;25.50;5.43;;;;;;;16.62;81.05;102327.34;5056744;28;20056;-69
2022/06/11 06:30:31;;;;;;;25.33;5.13;;;;;;;16.70;78.56;102322.09;5056750;28;20496;-70
2022/06/11 06:32:56;;;;;;;18.65;4.40;;;;;;;16.79;77.98;102323.09;5056745;28;20124;-70
2022/06/11 06:35:22;;;;;;;22.75;4.75;;;;;;;16.85;75.68;102330.56;5056961;28;20450;-70
2022/06/11 06:37:47;;;;;;;24.65;4.90;;;;;;;16.89;75.78;102332.00;5055961;28;20056;-69
2022/06/11 06:40:13;;;;;;;21.75;4.35;;;;;;;16.94;74.09;102334.25;5056543;28;20032;-68
2022/06/11 06:42:38;;;;;;;23.17;4.53;;;;;;;16.96;72.86;102336.81;5056183;28;20111;-68
2022/06/11 06:45:04;;;;;;;27.08;5.05;;;;;;;17.06;71.63;102334.94;5057101;28;20031;-68
2022/06/11 06:47:30;;;;;;;23.17;4.30;;;;;;;17.16;70.36;102333.06;5056902;28;20048;-68
2022/06/11 06:49:55;;;;;;;19.30;3.92;;;;;;;17.09;67.42;102334.66;5055223;28;20028;-68
2022/06/11 06:52:21;;;;;;;17.25;4.25;;;;;;;17.09;67.46;102337.34;5056698;28;20053;-68
2022/06/11 06:54:47;;;;;;;17.30;4.00;;;;;;;17.11;68.43;102343.44;5055296;28;20424;-68
2022/06/11 06:57:12;;;;;;;19.08;3.55;;;;;;;17.12;68.21;102336.22;5056373;28;20064;-69
2022/06/11 06:59:37;;;;;;;20.48;3.95;;;;;;;17.20;68.00;102339.88;5056625;28;20173;-69
2022/06/11 07:02:03;;;;;;;27.92;4.50;;;;;;;17.36;68.40;102338.38;5054709;28;20037;-68
2022/06/11 07:04:29;;;;;;;17.85;4.40;;;;;;;17.55;68.03;102349.06;5055851;28;20097;-70
2022/06/11 07:06:54;;;;;;;21.35;4.53;;;;;;;17.66;65.98;102342.66;5055997;28;20064;-69
2022/06/11 07:09:20;;;;;;;17.63;4.30;;;;;;;17.83;65.40;102342.88;5055948;28;20389;-70
2022/06/11 07:11:45;;;;;;;19.48;4.28;;;;;;;17.94;62.81;102348.91;5055542;28;20406;-71
2022/06/11 07:14:10;;;;;;;27.55;4.50;;;;;;;17.98;63.19;102347.59;5056097;28;20037;-70
2022/06/11 07:16:41;;;;;;;24.08;4.50;;;;;;;18.08;65.02;102347.53;5055898;28;20446;-68
2022/06/11 07:19:14;;;;;;;24.17;4.13;;;;;;;18.11;62.69;102349.94;5055663;28;20113;-70
2022/06/11 07:21:43;;;;;;;24.25;3.72;;;;;;;18.19;62.31;102349.16;5056017;28;20029;-71
2022/06/11 07:24:25;;;;;;;18.73;3.55;;;;;;;18.18;60.30;102344.78;5054351;28;20357;-70
2022/06/11 07:26:54;;;;;;;25.40;4.38;;;;;;;18.29;60.07;102344.56;5054812;28;20025;-71
2022/06/11 07:29:25;;;;;;;13.57;3.08;;;;;;;18.28;56.59;102350.09;5055930;28;20325;-71
2022/06/11 07:31:55;;;;;;;19.48;3.90;;;;;;;18.29;56.94;102341.03;5056051;28;20025;-69
2022/06/11 07:34:21;;;;;;;13.73;3.03;;;;;;;18.30;55.19;102345.41;5056187;28;20021;-71
2022/06/11 07:36:48;;;;;;;16.63;3.22;;;;;;;18.36;54.69;102349.31;5055860;28;20082;-71
2022/06/11 07:39:15;;;;;;;16.60;3.45;;;;;;;18.35;54.33;102358.41;5055497;28;20487;-71
2022/06/11 07:41:41;;;;;;;18.15;3.30;;;;;;;18.42;54.35;102348.72;5055432;28;20033;-76
2022/06/11 07:44:06;;;;;;;11.88;3.35;;;;;;;18.53;52.19;102355.72;5054180;28;20037;-70
2022/06/11 07:46:32;;;;;;;14.52;3.58;;;;;;;18.59;52.91;102353.25;5055286;28;20040;-70
2022/06/11 07:48:57;;;;;;;18.83;3.97;;;;;;;18.72;54.12;102352.84;5055309;28;20036;-71
2022/06/11 07:51:23;;;;;;;9.40;3.33;;;;;;;18.89;52.14;102361.09;5055030;28;20033;-70
2022/06/11 07:53:49;;;;;;;18.77;4.07;;;;;;;18.99;53.05;102365.38;5055580;28;20048;-71
2022/06/11 07:56:16;;;;;;;12.07;3.90;;;;;;;19.12;51.79;102356.03;5055099;28;20033;-69
2022/06/11 07:58:41;;;;;;;17.83;3.40;;;;;;;19.24;52.97;102359.31;5055559;28;20127;-69
2022/06/11 08:01:07;;;;;;;22.92;4.18;;;;;;;19.32;51.34;102362.06;5055288;28;20513;-69
2022/06/11 08:03:34;;;;;;;16.45;3.83;;;;;;;19.55;54.25;102373.97;5054984;28;20041;-70
2022/06/11 08:06:02;;;;;;;14.80;3.22;;;;;;;19.61;49.18;102367.09;5055125;28;20043;-69
2022/06/11 08:08:28;;;;;;;17.58;3.72;;;;;;;19.64;51.11;102376.72;5054768;28;20461;-69
2022/06/11 08:10:54;;;;;;;17.63;3.78;;;;;;;19.70;49.75;102368.81;5054245;28;20090;-69
2022/06/11 08:13:20;;;;;;;13.05;3.08;;;;;;;19.74;50.44;102374.75;5054685;28;20033;-69
2022/06/11 08:15:48;;;;;;;20.20;3.70;;;;;;;19.74;49.80;102380.16;5054673;28;20033;-70
2022/06/11 08:18:14;;;;;;;17.92;3.50;;;;;;;19.68;50.18;102376.22;5054776;28;20029;-69
2022/06/11 08:20:40;;;;;;;15.93;3.67;;;;;;;19.68;49.55;102378.94;5053573;28;20362;-69
2022/06/11 08:23:07;;;;;;;13.15;3.75;;;;;;;19.67;51.25;102373.69;5054653;28;20040;-69
2022/06/11 08:25:33;;;;;;;16.25;3.28;;;;;;;19.79;52.05;102369.72;5054494;28;20048;-69
2022/06/11 08:27:59;;;;;;;18.25;3.50;;;;;;;19.94;50.04;102375.34;5054533;28;20104;-69
2022/06/11 08:30:28;;;;;;;13.40;3.22;;;;;;;20.06;50.84;102384.00;5037317;28;20454;-69
2022/06/11 08:32:54;;;;;;;15.25;3.20;;;;;;;20.04;48.29;102377.91;5054516;28;20029;-69
2022/06/11 08:35:22;;;;;;;21.50;3.92;;;;;;;20.16;50.67;102375.75;5054870;28;20041;-69
2022/06/11 08:37:47;;;;;;;16.10;3.40;;;;;;;20.57;49.11;102375.78;5054327;28;20036;-69
2022/06/11 08:40:46;;;;;;;13.45;3.45;;;;;;;21.04;46.21;102375.13;5053943;28;20080;-69
2022/06/11 08:43:34;;;;;;;12.80;3.00;;;;;;;21.50;44.74;102374.56;5053056;28;20497;-69
2022/06/11 08:46:09;;;;;;;15.30;3.42;;;;;;;21.94;45.30;102373.19;5053794;28;20102;-70
2022/06/11 08:48:42;;;;;;;14.90;3.30;;;;;;;22.24;43.27;102368.75;5054445;28;20108;-69
2022/06/11 08:51:35;;;;;;;16.88;3.90;;;;;;;22.97;41.63;102371.91;5054678;28;20028;-69
2022/06/11 08:54:35;;;;;;;19.42;3.92;;;;;;;23.77;40.22;102372.25;5053181;28;20469;-69
2022/06/11 08:57:37;;;;;;;21.17;3.53;;;;;;;24.54;39.82;102365.38;5042012;28;20060;-70
2022/06/11 09:00:14;;;;;;;16.00;3.55;;;;;;;25.14;35.55;102365.84;5054456;28;20048;-70
2022/06/11 09:02:58;;;;;;;15.15;3.63;;;;;;;25.32;35.93;102372.72;5054161;28;20040;-70
2022/06/11 09:05:54;;;;;;;16.20;3.72;;;;;;;26.22;35.09;102350.84;5053923;28;20029;-70
2022/06/11 09:08:36;;;;;;;15.02;3.40;;;;;;;27.01;34.40;102354.66;5054072;28;20047;-70
2022/06/11 09:11:35;;;;;;;12.43;3.08;;;;;;;27.06;34.04;102348.53;5054231;28;20029;-70
2022/06/11 09:14:15;;;;;;;14.25;3.70;;;;;;;27.72;34.70;102353.00;5053633;28;20063;-70
2022/06/11 09:16:49;;;;;;;15.77;4.10;;;;;;;28.07;32.13;102341.66;5053749;28;20037;-70
2022/06/11 09:19:25;;;;;;;15.57;3.83;;;;;;;28.45;32.93;102348.13;5053562;28;20461;-70
2022/06/11 09:22:14;;;;;;;15.02;3.20;;;;;;;28.87;31.33;102353.06;5053834;28;20044;-70
2022/06/11 09:25:17;;;;;;;16.70;3.78;;;;;;;28.20;33.26;102351.69;5053427;28;20048;-70
2022/06/11 09:27:55;;;;;;;20.30;4.38;;;;;;;28.55;31.82;102344.91;5053917;28;20117;-70
2022/06/11 09:30:33;;;;;;;12.60;3.55;;;;;;;27.40;32.59;102352.06;5052450;28;20525;-70
2022/06/11 09:33:07;;;;;;;18.40;3.55;;;;;;;25.07;37.85;102356.81;5053644;28;20079;-71
2022/06/11 09:35:41;;;;;;;18.63;4.28;;;;;;;24.59;39.33;102360.22;5053463;28;20449;-71
2022/06/11 09:38:25;;;;;;;19.23;4.32;;;;;;;25.17;38.21;102361.91;5053339;28;20036;-69
2022/06/11 09:41:15;;;;;;;20.20;4.30;;;;;;;25.72;38.85;102358.41;5053573;28;20040;-70
2022/06/11 09:44:17;;;;;;;18.30;4.22;;;;;;;26.32;36.79;102361.31;5053365;28;20530;-70
2022/06/11 09:46:58;;;;;;;14.55;4.15;;;;;;;25.55;38.83;102364.22;5053566;28;20045;-70
2022/06/11 09:49:27;;;;;;;18.35;4.00;;;;;;;26.14;37.00;102368.25;5052813;28;20033;-70
2022/06/11 09:52:26;;;;;;;18.05;4.47;;;;;;;27.25;34.79;102363.22;5052900;28;20481;-70
2022/06/11 09:54:57;;;;;;;20.38;4.72;;;;;;;28.53;35.22;102364.28;5049072;28;20166;-70
2022/06/11 09:57:45;;;;;;;13.80;3.95;;;;;;;28.14;32.17;102361.63;5053673;28;20089;-69
2022/06/11 10:00:30;;;;;;;13.88;3.83;;;;;;;28.32;33.19;102366.34;5053070;28;20025;-70
2022/06/11 10:06:19;;;;;;;16.27;4.10;;;;;;;28.26;32.89;102371.84;5052996;28;20037;-69
2022/06/11 10:08:58;;;;;;;18.33;4.70;;;;;;;27.66;33.18;102364.78;5053302;28;20517;-70
2022/06/11 10:11:38;;;;;;;23.70;4.13;;;;;;;25.78;37.82;102380.28;5053124;28;20112;-68
2022/06/11 10:14:38;;;;;;;21.23;4.32;;;;;;;25.20;38.12;102383.28;5052887;28;20029;-69
2022/06/11 10:17:28;;;;;;;19.90;3.97;;;;;;;24.22;41.03;102380.31;5053331;28;20119;-71
2022/06/11 10:20:17;;;;;;;19.25;4.60;;;;;;;23.60;42.23;102377.03;5053078;28;20037;-69
2022/06/11 10:22:45;;;;;;;16.50;3.80;;;;;;;24.07;41.53;102383.09;5053550;28;20033;-70
2022/06/11 10:25:30;;;;;;;13.65;3.33;;;;;;;25.88;36.56;102380.69;5052801;28;20029;-70
2022/06/11 10:28:14;;;;;;;16.75;3.78;;;;;;;26.78;35.81;102390.56;5053200;28;20064;-70
2022/06/11 10:30:52;;;;;;;23.00;4.47;;;;;;;25.59;37.32;102394.63;5053592;28;20067;-71
2022/06/11 10:33:35;;;;;;;15.88;3.72;;;;;;;26.03;38.07;102396.09;5052904;28;20029;-70
2022/06/11 10:36:02;;;;;;;18.95;4.07;;;;;;;27.14;37.34;102383.84;5053018;28;20029;-70
2022/06/11 10:38:44;;;;;;;16.42;3.85;;;;;;;27.83;35.42;102394.34;5051487;28;20388;-70
2022/06/11 10:41:19;;;;;;;18.02;4.05;;;;;;;28.26;33.72;102385.50;5052915;28;20029;-70
2022/06/11 10:43:53;;;;;;;18.20;3.85;;;;;;;27.09;35.17;102384.44;5052753;28;20025;-70
2022/06/11 10:46:18;;;;;;;13.60;3.25;;;;;;;25.72;37.27;102391.13;5052702;28;20048;-70
2022/06/11 10:48:44;;;;;;;16.27;3.33;;;;;;;26.26;37.69;102387.56;5052848;28;20025;-70
2022/06/11 10:51:24;;;;;;;19.23;4.28;;;;;;;27.46;36.96;102375.78;5052089;28;20033;-70
2022/06/11 10:54:10;;;;;;;17.13;3.75;;;;;;;27.78;33.79;102382.19;5052908;28;20113;-70
2022/06/11 10:56:48;;;;;;;17.10;3.75;;;;;;;26.10;35.89;102382.50;5052674;28;20033;-69
2022/06/11 10:59:24;;;;;;;17.90;4.00;;;;;;;26.26;36.17;102375.81;5052732;28;20105;-69
2022/06/11 11:02:03;;;;;;;13.45;3.67;;;;;;;27.58;34.69;102375.97;5056371;28;20033;-69
2022/06/11 11:04:37;;;;;;;16.40;4.03;;;;;;;28.01;34.85;102378.09;5056692;28;20101;-69
2022/06/11 11:07:13;;;;;;;16.92;3.72;;;;;;;27.53;35.23;102392.16;5056225;28;20060;-69
2022/06/11 11:09:38;;;;;;;19.70;4.68;;;;;;;27.40;37.22;102385.69;5056534;28;20059;-69
2022/06/11 11:12:07;;;;;;;20.20;4.22;;;;;;;28.09;35.23;102396.97;5056429;28;20032;-71
2022/06/11 11:14:42;;;;;;;19.10;4.07;;;;;;;27.76;34.48;102402.59;5055781;28;20078;-71
2022/06/11 11:17:20;;;;;;;15.13;4.00;;;;;;;26.61;34.57;102392.03;5056456;28;20035;-69
2022/06/11 11:20:29;;;;;;;16.58;4.50;;;;;;;25.54;39.26;102386.22;5056170;28;20496;-69
2022/06/11 11:22:39;;;;;;;15.90;3.83;;;;;;;24.56;40.53;102392.38;5055939;28;20477;-69
2022/06/11 11:25:15;;;;;;;19.98;4.07;;;;;;;23.97;39.82;102398.84;5055703;28;20116;-70
2022/06/11 11:27:47;;;;;;;16.90;4.40;;;;;;;24.34;40.93;102391.53;5055817;28;20075;-70
2022/06/11 11:30:15;;;;;;;17.73;4.07;;;;;;;25.19;39.65;102387.03;5055884;28;20028;-75
2022/06/11 11:32:42;;;;;;;18.42;3.72;;;;;;;25.64;36.54;102390.25;5055905;28;20025;-69
2022/06/11 11:35:24;;;;;;;16.52;4.00;;;;;;;26.49;36.34;102389.06;5055442;28;20032;-69
2022/06/11 11:38:20;;;;;;;16.48;3.85;;;;;;;26.92;35.88;102391.41;5056408;28;20068;-70
2022/06/11 11:41:02;;;;;;;15.45;3.67;;;;;;;27.55;34.55;102388.16;5054845;28;20079;-69
2022/06/11 11:43:42;;;;;;;18.30;4.32;;;;;;;27.76;34.59;102386.19;5055965;28;20106;-70
2022/06/11 11:46:22;;;;;;;17.52;4.30;;;;;;;27.61;33.09;102391.94;5055820;28;20032;-70